Time;durP1;ratioP1;P1;durP2;ratioP2;P2;SDS_P1;SDS_P2;PMS_P1;PMS_P2;Temp;Humidity;BMP_temperature;BMP_pressure;BME280_temperature;BME280_humidity;BME280_pressure;Samples;Min_cycle;Max_cycle;Signal;HPM_P1;HPM_P2
2023/02/14 00:01:14;;;;;;;;;;;17.60;61.80;;;;;;5041710;28;1246;-68
2023/02/14 00:03:39;;;;;;;;;;;17.60;61.80;;;;;;5043832;28;1316;-68
2023/02/14 00:06:09;;;;;;;;;;;17.60;61.90;;;;;;5041323;28;1041;-68
2023/02/14 00:08:35;;;;;;;;;;;17.60;61.90;;;;;;5072893;28;847;-68
2023/02/14 00:11:01;;;;;;;;;;;17.60;61.90;;;;;;5042169;28;1362;-67
2023/02/14 00:13:26;;;;;;;;;;;17.60;61.90;;;;;;5071130;28;1960;-68
2023/02/14 00:15:53;;;;;;;;;;;17.60;61.90;;;;;;5070831;28;904;-68
2023/02/14 00:18:18;;;;;;;;;;;17.60;62.00;;;;;;5039671;28;871;-68
2023/02/14 00:20:44;;;;;;;;;;;17.60;61.90;;;;;;5040983;28;1361;-68
2023/02/14 00:23:09;;;;;;;;;;;17.60;62.00;;;;;;5039806;28;871;-68
2023/02/14 00:25:35;;;;;;;;;;;17.60;62.70;;;;;;5041294;28;1014;-68
2023/02/14 00:28:00;;;;;;;;;;;17.60;62.00;;;;;;5041039;28;911;-68
2023/02/14 00:30:26;;;;;;;;;;;17.60;62.00;;;;;;5039196;28;1247;-68
2023/02/14 00:32:51;;;;;;;;;;;17.60;62.00;;;;;;5043818;28;1902;-67
2023/02/14 00:35:17;;;;;;;;;;;17.60;62.00;;;;;;5040000;28;1345;-68
2023/02/14 00:37:42;;;;;;;;;;;17.60;62.00;;;;;;5040023;28;808;-67
2023/02/14 00:40:08;;;;;;;;;;;17.60;62.00;;;;;;5075339;28;1383;-68
2023/02/14 00:42:33;;;;;;;;;;;17.60;62.00;;;;;;5040587;28;902;-67
2023/02/14 00:44:59;;;;;;;;;;;17.60;62.10;;;;;;5040815;28;887;-68
2023/02/14 00:47:25;;;;;;;;;;;17.60;62.10;;;;;;5039516;28;955;-69
2023/02/14 00:49:50;;;;;;;;;;;17.60;62.10;;;;;;5040965;28;1338;-67
2023/02/14 00:52:15;;;;;;;;;;;17.60;62.10;;;;;;5071953;28;1902;-68
2023/02/14 00:54:41;;;;;;;;;;;17.50;62.00;;;;;;5038877;28;985;-67
2023/02/14 00:57:06;;;;;;;;;;;17.60;62.10;;;;;;5040324;28;845;-68
2023/02/14 00:59:32;;;;;;;;;;;17.50;62.10;;;;;;5046283;28;1366;-68
2023/02/14 01:01:57;;;;;;;;;;;17.50;62.10;;;;;;5038078;28;931;-68
2023/02/14 01:04:23;;;;;;;;;;;17.50;62.10;;;;;;5037948;28;818;-68
2023/02/14 01:06:48;;;;;;;;;;;17.50;62.10;;;;;;5041980;28;912;-68
2023/02/14 01:09:14;;;;;;;;;;;17.50;62.10;;;;;;5073473;28;809;-68
2023/02/14 01:11:39;;;;;;;;;;;17.50;62.10;;;;;;5041024;28;1977;-68
2023/02/14 01:14:05;;;;;;;;;;;17.50;62.10;;;;;;5036903;28;844;-68
2023/02/14 01:16:30;;;;;;;;;;;17.50;62.10;;;;;;5038561;28;1180;-68
2023/02/14 01:18:57;;;;;;;;;;;17.50;62.10;;;;;;5040587;28;871;-68
2023/02/14 01:21:27;;;;;;;;;;;17.50;62.20;;;;;;5039682;28;1245;-68
2023/02/14 01:23:55;;;;;;;;;;;17.50;62.20;;;;;;5067857;28;863;-67
2023/02/14 01:26:20;;;;;;;;;;;17.50;62.20;;;;;;5037631;28;883;-68
2023/02/14 01:28:46;;;;;;;;;;;17.50;62.20;;;;;;5038166;28;1041;-68
2023/02/14 01:31:19;;;;;;;;;;;17.50;62.20;;;;;;5073471;28;1221;-67
2023/02/14 01:33:44;;;;;;;;;;;17.50;62.20;;;;;;5072673;28;1355;-68
2023/02/14 01:36:14;;;;;;;;;;;17.50;62.20;;;;;;5070056;28;1022;-68
2023/02/14 01:38:39;;;;;;;;;;;17.50;62.20;;;;;;5041065;28;883;-67
2023/02/14 01:41:05;;;;;;;;;;;17.50;62.20;;;;;;5038010;28;1333;-68
2023/02/14 01:43:30;;;;;;;;;;;17.50;62.30;;;;;;5036373;28;1176;-68
2023/02/14 01:45:56;;;;;;;;;;;17.50;62.30;;;;;;5071613;28;789;-68
2023/02/14 01:48:21;;;;;;;;;;;17.50;62.30;;;;;;5037841;28;796;-68
2023/02/14 01:50:47;;;;;;;;;;;17.50;62.30;;;;;;5035661;28;1373;-68
2023/02/14 01:53:14;;;;;;;;;;;17.50;62.30;;;;;;5073759;28;1977;-68
2023/02/14 01:55:41;;;;;;;;;;;17.50;62.30;;;;;;5071792;28;883;-68
2023/02/14 01:58:26;;;;;;;;;;;17.50;62.30;;;;;;5040907;28;770;-68
2023/02/14 02:00:58;;;;;;;;;;;17.50;62.30;;;;;;5038280;28;1573;-68
2023/02/14 02:03:33;;;;;;;;;;;17.50;62.30;;;;;;5040086;28;925;-68
2023/02/14 02:06:04;;;;;;;;;;;17.50;62.30;;;;;;5071610;28;811;-68
2023/02/14 02:08:30;;;;;;;;;;;17.40;62.30;;;;;;5069416;28;928;-68
2023/02/14 02:10:55;;;;;;;;;;;17.40;62.30;;;;;;5037778;28;1264;-68
2023/02/14 02:13:21;;;;;;;;;;;17.50;62.30;;;;;;5038872;28;1984;-69
2023/02/14 02:15:49;;;;;;;;;;;17.40;62.30;;;;;;5039855;28;966;-68
2023/02/14 02:18:18;;;;;;;;;;;17.40;63.10;;;;;;5072810;28;867;-68
2023/02/14 02:20:52;;;;;;;;;;;17.40;62.30;;;;;;5033581;28;1396;-68
2023/02/14 02:23:29;;;;;;;;;;;17.40;62.30;;;;;;5074809;28;804;-67
2023/02/14 02:26:13;;;;;;;;;;;17.50;62.40;;;;;;5068802;28;895;-68
2023/02/14 02:28:38;;;;;;;;;;;17.40;62.30;;;;;;5039833;28;919;-68
2023/02/14 02:31:22;;;;;;;;;;;17.50;62.50;;;;;;5038663;28;1318;-67
2023/02/14 02:34:06;;;;;;;;;;;17.40;62.30;;;;;;5039107;28;1309;-68
2023/02/14 02:37:00;;;;;;;;;;;17.40;62.30;;;;;;5042616;28;1246;-68
2023/02/14 02:39:44;;;;;;;;;;;17.40;62.40;;;;;;5039181;28;1344;-67
2023/02/14 02:42:33;;;;;;;;;;;17.40;62.40;;;;;;5043776;28;844;-68
2023/02/14 02:45:01;;;;;;;;;;;17.40;62.40;;;;;;5036824;28;1140;-68
2023/02/14 02:47:41;;;;;;;;;;;17.40;62.40;;;;;;5041454;28;879;-67
2023/02/14 02:53:02;;;;;;;;;;;17.40;62.40;;;;;;5042035;28;1977;-67
2023/02/14 02:58:20;;;;;;;;;;;17.40;62.40;;;;;;5068524;28;778;-68
2023/02/14 03:00:46;;;;;;;;;;;17.40;62.40;;;;;;5070067;28;1418;-68
2023/02/14 03:05:55;;;;;;;;;;;17.40;62.50;;;;;;5067322;28;928;-67
2023/02/14 03:08:21;;;;;;;;;;;17.40;62.50;;;;;;5041821;28;856;-68
2023/02/14 03:10:46;;;;;;;;;;;17.40;62.40;;;;;;5041602;28;1364;-68
2023/02/14 03:13:12;;;;;;;;;;;17.40;63.30;;;;;;5040365;28;1911;-68
2023/02/14 03:15:50;;;;;;;;;;;17.40;62.50;;;;;;5040217;28;929;-68
2023/02/14 03:18:28;;;;;;;;;;;17.40;62.50;;;;;;5059073;28;1243;-67
2023/02/14 03:20:59;;;;;;;;;;;17.40;62.50;;;;;;5041300;28;1245;-68
2023/02/14 03:23:26;;;;;;;;;;;17.40;62.50;;;;;;5073840;28;1062;-67
2023/02/14 03:26:04;;;;;;;;;;;17.40;62.50;;;;;;5072006;28;832;-68
2023/02/14 03:28:32;;;;;;;;;;;17.30;62.50;;;;;;5074064;28;895;-68
2023/02/14 03:30:58;;;;;;;;;;;17.40;62.50;;;;;;5075411;28;1269;-68
2023/02/14 03:33:23;;;;;;;;;;;17.30;62.50;;;;;;5042923;28;1969;-68
2023/02/14 03:36:00;;;;;;;;;;;17.30;62.50;;;;;;5041561;28;1275;-68
2023/02/14 03:38:37;;;;;;;;;;;17.30;62.50;;;;;;5073250;28;891;-68
2023/02/14 03:41:03;;;;;;;;;;;17.40;62.50;;;;;;5074270;28;1306;-68
2023/02/14 03:43:33;;;;;;;;;;;17.40;62.60;;;;;;5072400;28;994;-68
2023/02/14 03:46:12;;;;;;;;;;;17.30;62.50;;;;;;5073209;28;918;-68
2023/02/14 03:48:38;;;;;;;;;;;17.40;62.60;;;;;;5074529;28;843;-68
2023/02/14 03:51:04;;;;;;;;;;;17.30;62.50;;;;;;5076508;28;1241;-67
2023/02/14 03:53:30;;;;;;;;;;;17.40;62.60;;;;;;5075204;28;1894;-67
2023/02/14 03:55:56;;;;;;;;;;;17.40;62.60;;;;;;5044191;28;886;-68
2023/02/14 03:58:23;;;;;;;;;;;17.30;62.60;;;;;;5044792;28;851;-67
2023/02/14 04:00:49;;;;;;;;;;;17.40;62.70;;;;;;5061918;28;1646;-67
2023/02/14 04:03:16;;;;;;;;;;;17.30;62.60;;;;;;5041819;28;1327;-68
2023/02/14 04:05:45;;;;;;;;;;;17.30;62.60;;;;;;5073043;28;902;-68
2023/02/14 04:08:11;;;;;;;;;;;17.40;62.60;;;;;;5059444;28;1221;-68
2023/02/14 04:10:36;;;;;;;;;;;17.30;62.60;;;;;;5074239;28;1257;-68
2023/02/14 04:13:02;;;;;;;;;;;17.40;62.70;;;;;;5074149;28;1977;-68
2023/02/14 04:15:27;;;;;;;;;;;17.30;62.60;;;;;;5070330;28;820;-68
2023/02/14 04:20:37;;;;;;;;;;;17.30;62.60;;;;;;5040464;28;1247;-68
2023/02/14 04:23:03;;;;;;;;;;;17.30;62.60;;;;;;5039585;28;828;-68
2023/02/14 04:25:28;;;;;;;;;;;17.30;62.60;;;;;;5042525;28;851;-68
2023/02/14 04:27:53;;;;;;;;;;;17.30;63.40;;;;;;5039875;28;825;-68
2023/02/14 04:30:22;;;;;;;;;;;17.30;62.60;;;;;;5069871;28;1370;-68
2023/02/14 04:32:48;;;;;;;;;;;17.30;62.60;;;;;;5069401;28;1972;-68
2023/02/14 04:35:13;;;;;;;;;;;17.30;62.60;;;;;;5040744;28;1265;-68
2023/02/14 04:37:39;;;;;;;;;;;17.30;62.60;;;;;;5039852;28;859;-68
2023/02/14 04:40:04;;;;;;;;;;;17.30;62.70;;;;;;5071969;28;1257;-68
2023/02/14 04:42:30;;;;;;;;;;;17.30;62.70;;;;;;5038419;28;859;-67
2023/02/14 04:44:55;;;;;;;;;;;17.30;62.70;;;;;;5040822;28;880;-68
2023/02/14 04:47:21;;;;;;;;;;;17.30;62.70;;;;;;5041762;28;900;-68
2023/02/14 04:49:46;;;;;;;;;;;17.30;62.70;;;;;;5040722;28;1253;-67
2023/02/14 04:52:12;;;;;;;;;;;17.30;62.70;;;;;;5038096;28;1890;-69
2023/02/14 04:54:37;;;;;;;;;;;17.30;62.70;;;;;;5039742;28;916;-68
2023/02/14 04:57:03;;;;;;;;;;;17.30;62.70;;;;;;5069168;28;1227;-68
2023/02/14 04:59:28;;;;;;;;;;;17.30;62.70;;;;;;5075249;28;1302;-68
2023/02/14 05:01:54;;;;;;;;;;;17.30;62.70;;;;;;5040976;28;902;-68
2023/02/14 05:04:19;;;;;;;;;;;17.30;62.70;;;;;;5041330;28;1286;-68
2023/02/14 05:06:44;;;;;;;;;;;17.30;62.70;;;;;;5036732;28;944;-68
2023/02/14 05:09:10;;;;;;;;;;;17.30;62.70;;;;;;5072401;28;855;-68
2023/02/14 05:11:35;;;;;;;;;;;17.30;62.60;;;;;;5076223;28;1938;-68
2023/02/14 05:14:01;;;;;;;;;;;17.30;62.50;;;;;;5038890;28;850;-67
2023/02/14 05:16:26;;;;;;;;;;;17.30;62.40;;;;;;5039581;28;920;-68
2023/02/14 05:18:52;;;;;;;;;;;17.40;62.40;;;;;;5038034;28;1027;-67
2023/02/14 05:21:17;;;;;;;;;;;17.40;62.20;;;;;;5037486;28;1356;-68
2023/02/14 05:23:43;;;;;;;;;;;17.50;62.20;;;;;;5069000;28;831;-68
2023/02/14 05:26:08;;;;;;;;;;;17.50;62.00;;;;;;5038596;28;868;-69
2023/02/14 05:28:34;;;;;;;;;;;17.50;61.90;;;;;;5066334;28;1750;-72
2023/02/14 05:30:59;;;;;;;;;;;17.60;61.80;;;;;;5039169;28;2000;-71
2023/02/14 05:33:25;;;;;;;;;;;17.60;61.70;;;;;;5042017;28;1959;-69
2023/02/14 05:35:50;;;;;;;;;;;17.60;61.50;;;;;;5041203;28;1369;-71
2023/02/14 05:38:16;;;;;;;;;;;17.70;61.50;;;;;;5039975;28;919;-71
2023/02/14 05:40:41;;;;;;;;;;;17.70;61.30;;;;;;5040032;28;1355;-69
2023/02/14 05:43:07;;;;;;;;;;;17.80;61.10;;;;;;5071650;28;993;-70
2023/02/14 05:45:32;;;;;;;;;;;17.90;60.90;;;;;;5036218;28;833;-72
2023/02/14 05:47:58;;;;;;;;;;;18.00;60.60;;;;;;5040881;28;1029;-72
2023/02/14 05:50:23;;;;;;;;;;;18.00;60.30;;;;;;5039639;28;1341;-71
2023/02/14 05:52:49;;;;;;;;;;;18.10;60.20;;;;;;5039130;28;1906;-72
2023/02/14 05:55:14;;;;;;;;;;;18.10;60.00;;;;;;5035903;28;840;-71
2023/02/14 05:57:40;;;;;;;;;;;18.20;59.90;;;;;;5068907;28;832;-72
2023/02/14 06:00:06;;;;;;;;;;;18.30;59.80;;;;;;5037740;28;1337;-72
2023/02/14 06:02:31;;;;;;;;;;;18.40;59.80;;;;;;5069010;28;1109;-71
2023/02/14 06:04:56;;;;;;;;;;;18.50;59.70;;;;;;5039410;28;1321;-70
2023/02/14 06:07:22;;;;;;;;;;;18.60;59.50;;;;;;5070293;28;899;-69
2023/02/14 06:09:48;;;;;;;;;;;18.70;59.40;;;;;;5037705;28;1355;-69
2023/02/14 06:12:13;;;;;;;;;;;18.80;59.20;;;;;;5037587;28;1965;-69
2023/02/14 06:14:40;;;;;;;;;;;18.90;58.90;;;;;;5040585;28;1310;-68
2023/02/14 06:17:05;;;;;;;;;;;19.00;58.60;;;;;;5039943;28;855;-70
2023/02/14 06:19:31;;;;;;;;;;;19.10;58.40;;;;;;5032940;28;1281;-68
2023/02/14 06:21:56;;;;;;;;;;;19.30;58.20;;;;;;5041316;28;982;-68
2023/02/14 06:24:22;;;;;;;;;;;19.40;58.00;;;;;;5041457;28;1018;-68
2023/02/14 06:26:47;;;;;;;;;;;19.40;57.70;;;;;;5035706;28;797;-68
2023/02/14 06:29:14;;;;;;;;;;;19.50;57.60;;;;;;5038134;28;928;-70
2023/02/14 06:31:40;;;;;;;;;;;19.60;57.40;;;;;;5035207;28;1898;-69
2023/02/14 06:34:05;;;;;;;;;;;19.70;57.20;;;;;;5038679;28;1560;-70
2023/02/14 06:36:31;;;;;;;;;;;19.80;57.50;;;;;;5040690;28;1317;-71
2023/02/14 06:38:56;;;;;;;;;;;19.80;57.00;;;;;;5041688;28;784;-71
2023/02/14 06:41:21;;;;;;;;;;;19.80;56.80;;;;;;5036301;28;1281;-71
2023/02/14 06:43:50;;;;;;;;;;;19.90;56.80;;;;;;5040447;28;955;-71
2023/02/14 06:46:16;;;;;;;;;;;19.90;56.50;;;;;;5068626;28;870;-71
2023/02/14 06:48:41;;;;;;;;;;;20.00;56.50;;;;;;5038744;28;843;-70
2023/02/14 06:51:07;;;;;;;;;;;20.00;56.40;;;;;;5036434;28;1651;-70
2023/02/14 06:53:32;;;;;;;;;;;20.10;56.40;;;;;;5037951;28;1902;-70
2023/02/14 06:55:58;;;;;;;;;;;20.10;56.30;;;;;;5070669;28;922;-70
2023/02/14 06:58:23;;;;;;;;;;;20.10;56.30;;;;;;5071022;28;824;-70
2023/02/14 07:00:49;;;;;;;;;;;20.10;56.30;;;;;;5038889;28;1272;-70
2023/02/14 07:03:14;;;;;;;;;;;20.10;56.30;;;;;;5039343;28;1039;-70
2023/02/14 07:05:39;;;;;;;;;;;20.10;56.30;;;;;;5039688;28;868;-70
2023/02/14 07:08:06;;;;;;;;;;;20.10;56.20;;;;;;5039153;28;895;-70
2023/02/14 07:10:32;;;;;;;;;;;20.10;56.20;;;;;;5070062;28;1420;-70
2023/02/14 07:12:58;;;;;;;;;;;20.10;56.30;;;;;;5038423;28;1906;-70
2023/02/14 07:15:24;;;;;;;;;;;20.20;56.30;;;;;;5036139;28;1010;-69
2023/02/14 07:17:49;;;;;;;;;;;20.20;56.40;;;;;;5041437;28;800;-70
2023/02/14 07:20:14;;;;;;;;;;;20.10;56.30;;;;;;5037128;28;1261;-70
2023/02/14 07:22:40;;;;;;;;;;;20.10;56.40;;;;;;5039788;28;974;-69
2023/02/14 07:25:06;;;;;;;;;;;20.10;56.50;;;;;;5039840;28;855;-69
2023/02/14 07:27:31;;;;;;;;;;;20.10;56.50;;;;;;5073080;28;832;-70
2023/02/14 07:29:57;;;;;;;;;;;20.10;56.60;;;;;;5075437;28;1357;-70
2023/02/14 07:32:22;;;;;;;;;;;20.10;56.70;;;;;;5040854;28;1907;-69
2023/02/14 07:34:48;;;;;;;;;;;20.00;56.70;;;;;;5041913;28;1257;-69
2023/02/14 07:37:15;;;;;;;;;;;20.00;56.80;;;;;;5041935;28;1046;-70
2023/02/14 07:39:41;;;;;;;;;;;20.00;57.00;;;;;;5069572;28;1421;-70
2023/02/14 07:42:07;;;;;;;;;;;20.00;57.10;;;;;;5072812;28;849;-69
2023/02/14 07:44:32;;;;;;;;;;;19.90;57.00;;;;;;5035371;28;4438;-70
2023/02/14 07:46:58;;;;;;;;;;;19.90;57.20;;;;;;5072737;28;907;-69
2023/02/14 07:49:23;;;;;;;;;;;19.90;57.20;;;;;;5073112;28;994;-69
2023/02/14 07:51:49;;;;;;;;;;;19.90;57.10;;;;;;5043192;28;1898;-70
2023/02/14 07:54:14;;;;;;;;;;;19.90;57.20;;;;;;5042008;28;879;-69
2023/02/14 07:56:39;;;;;;;;;;;19.90;57.30;;;;;;5042058;28;808;-70
2023/02/14 07:59:05;;;;;;;;;;;19.90;57.40;;;;;;5040440;28;797;-70
2023/02/14 08:01:30;;;;;;;;;;;19.80;57.40;;;;;;5041843;28;1448;-69
2023/02/14 08:03:56;;;;;;;;;;;19.80;57.30;;;;;;5044265;28;1309;-70
2023/02/14 08:06:21;;;;;;;;;;;19.80;57.90;;;;;;5043131;28;1308;-70
2023/02/14 08:08:47;;;;;;;;;;;19.80;58.20;;;;;;5041416;28;1216;-70
2023/02/14 08:12:57;;;;;;;;;;;19.80;58.30;;;;;;5041007;28;1264;-69
2023/02/14 08:13:58;;;;;;;;;;;19.80;58.30;;;;;;5067122;28;1608;-69
2023/02/14 08:16:23;;;;;;;;;;;19.80;58.40;;;;;;5040994;28;1345;-69
2023/02/14 08:18:49;;;;;;;;;;;19.80;58.60;;;;;;5042751;28;1409;-70
2023/02/14 08:21:16;;;;;;;;;;;19.80;58.60;;;;;;5031006;28;1369;-70
2023/02/14 08:23:41;;;;;;;;;;;19.80;58.80;;;;;;5073676;28;919;-70
2023/02/14 08:26:07;;;;;;;;;;;19.80;58.80;;;;;;5040448;28;800;-70
2023/02/14 08:28:33;;;;;;;;;;;19.80;58.90;;;;;;5040437;28;2375;-70
2023/02/14 08:30:59;;;;;;;;;;;19.80;59.00;;;;;;5041398;28;1480;-70
2023/02/14 08:33:24;;;;;;;;;;;19.80;59.10;;;;;;5071076;28;1898;-70
2023/02/14 08:35:50;;;;;;;;;;;19.80;59.10;;;;;;5039950;28;931;-70
2023/02/14 08:38:15;;;;;;;;;;;19.70;59.10;;;;;;5071818;28;1485;-70
2023/02/14 08:40:41;;;;;;;;;;;19.70;59.40;;;;;;5059811;28;1470;-70
2023/02/14 08:43:06;;;;;;;;;;;19.70;59.50;;;;;;5039437;28;1142;-70
2023/02/14 08:45:32;;;;;;;;;;;19.70;59.90;;;;;;5039075;28;1423;-70
2023/02/14 08:48:01;;;;;;;;;;;19.70;60.10;;;;;;5071056;28;926;-69
2023/02/14 08:50:26;;;;;;;;;;;19.70;60.20;;;;;;5073847;28;1283;-70
2023/02/14 08:52:52;;;;;;;;;;;19.70;60.40;;;;;;5039706;28;1898;-70
2023/02/14 08:55:17;;;;;;;;;;;19.70;61.60;;;;;;5041737;28;903;-70
2023/02/14 08:57:43;;;;;;;;;;;19.70;61.60;;;;;;5042231;28;1200;-70
2023/02/14 09:00:09;;;;;;;;;;;19.60;61.50;;;;;;5056615;28;1382;-70
2023/02/14 09:02:34;;;;;;;;;;;19.60;61.70;;;;;;5039038;28;1447;-71
2023/02/14 09:05:00;;;;;;;;;;;19.60;61.80;;;;;;5041965;28;868;-70
2023/02/14 09:07:25;;;;;;;;;;;19.60;62.40;;;;;;5042777;28;895;-70
2023/02/14 09:09:50;;;;;;;;;;;19.60;62.30;;;;;;5069404;28;1312;-70
2023/02/14 09:12:16;;;;;;;;;;;19.60;62.40;;;;;;5041335;28;1914;-70
2023/02/14 09:14:44;;;;;;;;;;;19.60;62.40;;;;;;5040189;28;878;-70
2023/02/14 09:17:10;;;;;;;;;;;19.50;62.30;;;;;;5070120;28;899;-70
2023/02/14 09:19:36;;;;;;;;;;;19.60;62.50;;;;;;5071651;28;1379;-69
2023/02/14 09:22:02;;;;;;;;;;;19.50;62.50;;;;;;5073773;28;926;-70
2023/02/14 09:24:28;;;;;;;;;;;19.50;62.60;;;;;;5041854;28;1171;-70
2023/02/14 09:26:56;;;;;;;;;;;19.50;62.70;;;;;;5072528;28;878;-70
2023/02/14 09:29:21;;;;;;;;;;;19.50;62.70;;;;;;5074434;28;926;-70
2023/02/14 09:31:47;;;;;;;;;;;19.40;62.80;;;;;;5037229;28;1973;-70
2023/02/14 09:34:12;;;;;;;;;;;19.50;63.00;;;;;;5035767;28;826;-70
2023/02/14 09:36:38;;;;;;;;;;;19.50;63.10;;;;;;5039227;28;1551;-71
2023/02/14 09:39:03;;;;;;;;;;;19.40;63.00;;;;;;5041639;28;1077;-71
2023/02/14 09:41:29;;;;;;;;;;;19.40;63.00;;;;;;5040447;28;1255;-71
2023/02/14 09:44:13;;;;;;;;;;;19.40;62.90;;;;;;5036608;28;857;-70
2023/02/14 09:46:44;;;;;;;;;;;19.40;62.80;;;;;;5042714;28;836;-70
2023/02/14 09:49:13;;;;;;;;;;;19.40;62.80;;;;;;5070206;28;903;-71
2023/02/14 09:51:38;;;;;;;;;;;19.40;62.90;;;;;;5070311;28;1902;-70
2023/02/14 09:54:14;;;;;;;;;;;19.40;62.90;;;;;;5070735;28;808;-70
2023/02/14 09:56:42;;;;;;;;;;;19.40;63.00;;;;;;5072307;28;1441;-71
2023/02/14 09:59:14;;;;;;;;;;;19.40;63.20;;;;;;5039702;28;956;-71
2023/02/14 10:01:40;;;;;;;;;;;19.30;63.20;;;;;;5072312;28;1391;-71
2023/02/14 10:04:15;;;;;;;;;;;19.30;63.30;;;;;;5038210;28;1034;-71
2023/02/14 10:07:10;;;;;;;;;;;19.30;63.50;;;;;;5071735;28;1307;-71
2023/02/14 10:09:49;;;;;;;;;;;19.30;63.60;;;;;;5034001;28;1496;-71
2023/02/14 10:12:19;;;;;;;;;;;19.30;63.70;;;;;;5070900;28;1906;-71
2023/02/14 10:14:45;;;;;;;;;;;19.30;63.90;;;;;;5071417;28;958;-70
2023/02/14 10:17:13;;;;;;;;;;;19.30;64.30;;;;;;5069242;28;975;-70
2023/02/14 10:19:43;;;;;;;;;;;19.30;64.30;;;;;;5038212;28;1231;-70
2023/02/14 10:22:16;;;;;;;;;;;19.30;64.40;;;;;;5037960;28;905;-70
2023/02/14 10:25:00;;;;;;;;;;;19.30;64.40;;;;;;5071055;28;855;-70
2023/02/14 10:27:28;;;;;;;;;;;19.20;64.40;;;;;;5054846;28;1089;-70
2023/02/14 10:29:54;;;;;;;;;;;19.30;64.60;;;;;;5035921;28;1386;-70
2023/02/14 10:32:25;;;;;;;;;;;19.20;64.60;;;;;;5036511;28;1926;-72
2023/02/14 10:34:50;;;;;;;;;;;19.20;64.60;;;;;;5071718;28;879;-71
2023/02/14 10:37:16;;;;;;;;;;;19.20;64.80;;;;;;5067336;28;1438;-70
2023/02/14 10:39:59;;;;;;;;;;;19.20;65.10;;;;;;5023781;28;5269;-72
2023/02/14 10:42:43;;;;;;;;;;;19.20;65.00;;;;;;5039284;28;2753;-69
2023/02/14 10:45:15;;;;;;;;;;;19.20;65.00;;;;;;5035219;28;1570;-69
2023/02/14 10:47:59;;;;;;;;;;;19.20;64.90;;;;;;5040677;28;939;-69
2023/02/14 10:50:30;;;;;;;;;;;19.20;64.90;;;;;;5038353;28;1170;-73
2023/02/14 10:53:11;;;;;;;;;;;19.20;64.80;;;;;;5070552;28;2070;-71
2023/02/14 10:55:39;;;;;;;;;;;19.10;64.70;;;;;;5042030;28;1384;-72
2023/02/14 10:58:05;;;;;;;;;;;19.10;64.70;;;;;;5075865;28;1279;-72
2023/02/14 11:00:32;;;;;;;;;;;19.10;64.70;;;;;;5060404;28;1251;-73
2023/02/14 11:02:58;;;;;;;;;;;19.10;64.70;;;;;;5042282;28;1108;-72
2023/02/14 11:05:27;;;;;;;;;;;19.10;64.70;;;;;;5070866;28;1202;-73
2023/02/14 11:07:55;;;;;;;;;;;19.10;64.60;;;;;;5074432;28;820;-73
2023/02/14 11:10:23;;;;;;;;;;;19.10;64.50;;;;;;5060486;28;1346;-72
2023/02/14 11:12:48;;;;;;;;;;;19.10;64.50;;;;;;5071520;28;1980;-73
2023/02/14 11:15:14;;;;;;;;;;;19.10;64.50;;;;;;5043281;28;1546;-72
2023/02/14 11:17:39;;;;;;;;;;;19.10;64.40;;;;;;5042389;28;872;-73
2023/02/14 11:20:31;;;;;;;;;;;19.20;64.50;;;;;;5075907;28;1813;-72
2023/02/14 11:22:57;;;;;;;;;;;19.20;64.40;;;;;;5041849;28;1053;-72
2023/02/14 11:25:26;;;;;;;;;;;19.20;64.30;;;;;;5040295;28;1202;-72
2023/02/14 11:27:57;;;;;;;;;;;19.20;64.20;;;;;;5041742;28;2092;-73
2023/02/14 11:30:29;;;;;;;;;;;19.20;64.20;;;;;;5073643;28;1462;-74
2023/02/14 11:32:55;;;;;;;;;;;19.20;64.10;;;;;;5075191;28;1890;-73
2023/02/14 11:35:25;;;;;;;;;;;19.20;64.00;;;;;;5073478;28;851;-72
2023/02/14 11:37:52;;;;;;;;;;;19.30;64.00;;;;;;5040899;28;1502;-73
2023/02/14 11:40:26;;;;;;;;;;;19.30;64.00;;;;;;5076102;28;1286;-73
2023/02/14 11:42:52;;;;;;;;;;;19.30;64.00;;;;;;5041167;28;943;-73
2023/02/14 11:45:34;;;;;;;;;;;19.20;64.00;;;;;;5071435;28;911;-73
2023/02/14 11:48:11;;;;;;;;;;;19.30;64.00;;;;;;5073910;28;926;-73
2023/02/14 11:50:37;;;;;;;;;;;19.30;63.90;;;;;;5045606;28;1292;-70
2023/02/14 11:53:02;;;;;;;;;;;19.30;63.80;;;;;;5040756;28;1899;-71
2023/02/14 11:55:34;;;;;;;;;;;19.30;63.80;;;;;;5056747;28;797;-72
2023/02/14 11:58:04;;;;;;;;;;;19.30;63.80;;;;;;5069009;28;929;-72
2023/02/14 12:00:30;;;;;;;;;;;19.30;63.70;;;;;;5041085;28;1269;-72
2023/02/14 12:02:56;;;;;;;;;;;19.30;63.70;;;;;;5041384;28;871;-71
2023/02/14 12:05:29;;;;;;;;;;;19.30;63.80;;;;;;5037528;28;866;-72
2023/02/14 12:07:55;;;;;;;;;;;19.40;63.90;;;;;;5074378;28;1006;-71
2023/02/14 12:10:22;;;;;;;;;;;19.40;63.80;;;;;;5075077;28;1252;-71
2023/02/14 12:12:48;;;;;;;;;;;19.40;63.80;;;;;;5038209;28;1979;-71
2023/02/14 12:15:39;;;;;;;;;;;19.30;63.70;;;;;;5071327;28;1292;-71
2023/02/14 12:18:10;;;;;;;;;;;19.30;64.20;;;;;;5041509;28;1041;-72
2023/02/14 12:20:43;;;;;;;;;;;19.40;64.40;;;;;;5040157;28;1322;-73
2023/02/14 12:23:21;;;;;;;;;;;19.40;64.40;;;;;;5070459;28;910;-73
2023/02/14 12:25:48;;;;;;;;;;;19.40;64.40;;;;;;5040374;28;947;-73
2023/02/14 12:28:15;;;;;;;;;;;19.40;64.30;;;;;;5072088;28;1001;-73
2023/02/14 12:30:40;;;;;;;;;;;19.40;64.40;;;;;;5068031;28;1347;-73
2023/02/14 12:33:14;;;;;;;;;;;19.40;64.40;;;;;;5042239;28;1890;-72
2023/02/14 12:35:44;;;;;;;;;;;19.30;64.30;;;;;;5071991;28;872;-72
2023/02/14 12:38:10;;;;;;;;;;;19.30;64.30;;;;;;5070123;28;1607;-73
2023/02/14 12:40:55;;;;;;;;;;;19.30;64.20;;;;;;5071787;28;1268;-73
2023/02/14 12:43:38;;;;;;;;;;;19.30;64.30;;;;;;5039784;28;974;-73
2023/02/14 12:46:13;;;;;;;;;;;19.30;64.40;;;;;;5039630;28;863;-72
2023/02/14 12:48:39;;;;;;;;;;;19.30;64.30;;;;;;5069914;28;1345;-72
2023/02/14 12:51:05;;;;;;;;;;;19.30;64.30;;;;;;5038011;28;1289;-72
2023/02/14 12:53:30;;;;;;;;;;;19.20;64.20;;;;;;5038785;28;1910;-73
2023/02/14 12:56:01;;;;;;;;;;;19.30;64.30;;;;;;5036760;28;1022;-71
2023/02/14 12:58:30;;;;;;;;;;;19.30;64.30;;;;;;5071128;28;2244;-72
2023/02/14 13:01:00;;;;;;;;;;;19.30;64.30;;;;;;5069212;28;1358;-71
2023/02/14 13:03:41;;;;;;;;;;;19.30;64.40;;;;;;5054991;28;1438;-72
2023/02/14 13:06:16;;;;;;;;;;;19.30;63.20;;;;;;5069833;28;1025;-71
2023/02/14 13:08:46;;;;;;;;;;;19.20;56.00;;;;;;5038058;28;959;-71
2023/02/14 13:11:33;;;;;;;;;;;19.10;52.90;;;;;;5071039;28;1377;-72
2023/02/14 13:14:08;;;;;;;;;;;19.00;51.70;;;;;;5070134;28;1959;-71
2023/02/14 13:16:50;;;;;;;;;;;18.90;49.10;;;;;;5071066;28;1121;-71
2023/02/14 13:19:32;;;;;;;;;;;18.80;47.90;;;;;;5068832;28;856;-71
2023/02/14 13:21:57;;;;;;;;;;;18.60;47.40;;;;;;5072071;28;883;-72
2023/02/14 13:24:27;;;;;;;;;;;18.50;47.30;;;;;;5072274;28;904;-72
2023/02/14 13:26:57;;;;;;;;;;;18.50;47.60;;;;;;5069458;28;840;-72
2023/02/14 13:29:24;;;;;;;;;;;18.40;47.30;;;;;;5071684;28;913;-72
2023/02/14 13:31:49;;;;;;;;;;;18.30;47.00;;;;;;5071126;28;1910;-72
2023/02/14 13:34:24;;;;;;;;;;;18.30;47.60;;;;;;5034533;28;1713;-71
2023/02/14 13:36:50;;;;;;;;;;;18.20;47.10;;;;;;5053847;28;1561;-70
2023/02/14 13:39:38;;;;;;;;;;;18.20;46.60;;;;;;5073579;28;1771;-70
2023/02/14 13:42:04;;;;;;;;;;;18.10;46.10;;;;;;5034445;28;1697;-71
2023/02/14 13:44:51;;;;;;;;;;;18.10;48.10;;;;;;5069977;28;1303;-71
2023/02/14 13:47:23;;;;;;;;;;;18.10;49.40;;;;;;5036784;28;828;-73
2023/02/14 13:49:58;;;;;;;;;;;18.00;49.70;;;;;;5069206;28;1308;-72
2023/02/14 13:52:42;;;;;;;;;;;18.00;50.20;;;;;;5068173;28;1987;-73
2023/02/14 13:55:08;;;;;;;;;;;18.00;50.90;;;;;;5035453;28;898;-73
2023/02/14 13:57:39;;;;;;;;;;;18.10;51.20;;;;;;5070728;28;1305;-73
2023/02/14 14:00:28;;;;;;;;;;;18.10;51.60;;;;;;5037937;28;1338;-73
2023/02/14 14:02:54;;;;;;;;;;;18.10;51.70;;;;;;5046395;28;1437;-73
2023/02/14 14:05:28;;;;;;;;;;;18.10;52.00;;;;;;5071502;28;860;-73
2023/02/14 14:08:12;;;;;;;;;;;18.10;52.20;;;;;;5039059;28;951;-73
2023/02/14 14:10:58;;;;;;;;;;;18.10;52.30;;;;;;5038107;28;1394;-73
2023/02/14 14:13:39;;;;;;;;;;;18.10;52.90;;;;;;5023925;28;1901;-73
2023/02/14 14:16:22;;;;;;;;;;;18.10;52.70;;;;;;5038729;28;875;-73
2023/02/14 14:19:08;;;;;;;;;;;18.10;53.30;;;;;;5035348;28;903;-73
2023/02/14 14:21:40;;;;;;;;;;;18.20;53.30;;;;;;5040228;28;1616;-73
2023/02/14 14:24:25;;;;;;;;;;;18.20;53.40;;;;;;5069556;28;806;-73
2023/02/14 14:27:03;;;;;;;;;;;18.20;53.50;;;;;;5041414;28;1257;-73
2023/02/14 14:29:30;;;;;;;;;;;18.20;53.70;;;;;;5071502;28;1571;-73
2023/02/14 14:31:55;;;;;;;;;;;18.20;53.60;;;;;;5045437;28;1973;-73
2023/02/14 14:34:23;;;;;;;;;;;18.20;53.80;;;;;;5075300;28;946;-72
2023/02/14 14:36:49;;;;;;;;;;;18.20;54.00;;;;;;5069843;28;1440;-72
2023/02/14 14:39:24;;;;;;;;;;;18.20;53.90;;;;;;5041593;28;1010;-72
2023/02/14 14:41:49;;;;;;;;;;;18.10;53.90;;;;;;5037381;28;1291;-71
2023/02/14 14:44:15;;;;;;;;;;;18.20;54.10;;;;;;5041162;28;891;-71
2023/02/14 14:46:40;;;;;;;;;;;18.10;54.20;;;;;;5075324;28;900;-72
2023/02/14 14:49:09;;;;;;;;;;;18.10;54.30;;;;;;5039023;28;841;-72
2023/02/14 14:51:34;;;;;;;;;;;18.10;54.40;;;;;;5072012;28;1377;-71
2023/02/14 14:54:04;;;;;;;;;;;18.10;54.60;;;;;;5071616;28;1910;-71
2023/02/14 14:56:31;;;;;;;;;;;18.10;54.70;;;;;;5073424;28;852;-71